Troviken — C6ZT9 — position and weather

sailwx.info

Track history (hours):
 
Tides and Currents Weather Stations Pressure Air Temp Water Temp Dewpoint Dewpoint Depression Visibility Wind Speed Wind Dir Waves Ship Positions

Troviken

Last reported at 2018-Feb-21 23:00 UTC. Time now 2018-Feb-21 23:26 UTC.
Position N 29°59' W 093°52'.

Length 250 m; draft 11.3 m.

Type: Tanker. MMSI: 311066200.

Date/timePositionNaut miles runAvg speedWind from/ knotsBaromVisibWave heightAir tempDewpointWater temp
2018-Feb-21 23:00N 29°59' W 093°52'3 5.2
2018-Feb-21 22:30N 29°56' W 093°52'2 3.8
2018-Feb-21 22:00N 29°55' W 093°53'3 6.8
2018-Feb-21 21:30N 29°52' W 093°56'2 4.2
2018-Feb-21 21:00N 29°50' W 093°57'3 6.7
2018-Feb-21 20:30N 29°47' W 093°57'3 6.3
2018-Feb-21 20:00N 29°45' W 093°54'4 7.9
2018-Feb-21 19:30N 29°42' W 093°51'5 9.8
2018-Feb-21 19:00N 29°38' W 093°49'510.1
2018-Feb-21 18:30N 29°34' W 093°46'510.3
2018-Feb-21 18:00N 29°30' W 093°41'510.5
2018-Feb-21 17:30N 29°25' W 093°40'2 3.1
2018-Feb-21 16:52N 29°23' W 093°40'2 4.3
2018-Feb-21 16:30N 29°21' W 093°40'610.7
2018-Feb-21 15:59N 29°16' W 093°41'1 0.0
2018-Feb-20 05:14N 29°15' W 093°42'0 0.0
2018-Feb-19 16:41N 29°15' W 093°42'0 0.0
2018-Feb-19 16:29N 29°15' W 093°42'0 0.0
2018-Feb-19 15:56N 29°15' W 093°42'0 0.0
2018-Feb-19 15:29N 29°15' W 093°42'0 0.0
2018-Feb-19 14:53N 29°15' W 093°42'0 0.0
2018-Feb-19 12:50N 29°15' W 093°42'0 0.0
2018-Feb-19 12:26N 29°15' W 093°42'0 0.0
2018-Feb-19 11:59N 29°15' W 093°42'0 0.0
2018-Feb-19 11:23N 29°15' W 093°42'0 0.0
2018-Feb-19 10:59N 29°15' W 093°42'0 0.0
2018-Feb-19 10:14N 29°15' W 093°42'0 0.0
2018-Feb-19 09:44N 29°15' W 093°42'0 0.0
2018-Feb-19 09:20N 29°15' W 093°42'0 0.0
2018-Feb-19 08:56N 29°15' W 093°42'0 0.0
2018-Feb-19 08:23N 29°15' W 093°42'0 0.0
2018-Feb-19 07:53N 29°15' W 093°42'0 0.0
2018-Feb-19 07:20N 29°15' W 093°42'0 0.0
2018-Feb-19 06:50N 29°15' W 093°42'0 0.0
2018-Feb-19 05:50N 29°15' W 093°42'0 0.0
2018-Feb-19 04:11N 29°15' W 093°42'0 0.0
2018-Feb-19 03:08N 29°15' W 093°42'0 0.0
2018-Feb-19 02:59N 29°15' W 093°42'0 0.0
2018-Feb-19 02:26N 29°15' W 093°42'0 0.0
2018-Feb-18 23:50N 29°15' W 093°42'0 0.0
2018-Feb-18 23:29N 29°15' W 093°42'0 0.0
2018-Feb-18 10:41N 29°15' W 093°42'0 0.0
2018-Feb-18 10:29N 29°15' W 093°42'0 0.0
2018-Feb-18 09:59N 29°15' W 093°42'0 0.0
2018-Feb-18 09:26N 29°15' W 093°42'0 0.0
2018-Feb-18 08:59N 29°15' W 093°42'0 0.0
2018-Feb-18 08:23N 29°15' W 093°42'0 0.0
2018-Feb-18 07:59N 29°15' W 093°42'0 0.0
2018-Feb-18 05:14N 29°15' W 093°42'0 0.1
2018-Feb-18 04:47N 29°15' W 093°42'0 0.0
2018-Feb-18 04:29N 29°15' W 093°42'0 0.0
2018-Feb-18 03:38N 29°15' W 093°42'0 0.0
2018-Feb-18 03:29N 29°15' W 093°42'0 0.0
2018-Feb-16 03:59N 29°15' W 093°42'0 0.0
2018-Feb-16 02:35N 29°15' W 093°42'0 0.0
2018-Feb-15 19:01N 29°15' W 093°42'0 3.2
2018-Feb-15 18:54N 29°15' W 093°42'7 7.1
2018-Feb-15 17:56N 29°08' W 093°41'510.3
2018-Feb-15 17:29N 29°04' W 093°42'23 9.4
2018-Feb-15 15:00N 28°45' W 093°59'10 9.9
2018-Feb-15 14:00N 28°41' W 094°09'610.0
2018-Feb-15 13:22N 28°38' W 094°15'6 9.9
2018-Feb-15 12:45N 28°37' W 094°22'3 9.9
2018-Feb-15 12:25N 28°36' W 094°26'410.1
2018-Feb-15 12:00N 28°35' W 094°30'510.1
2018-Feb-15 11:31N 28°34' W 094°36'4 7.7
2018-Feb-15 10:58N 28°32' W 094°40'0 0.7
2018-Feb-15 10:25N 28°31' W 094°40'1 0.8
2018-Feb-15 08:50N 28°33' W 094°40'0 0.0
2018-Feb-15 08:27N 28°33' W 094°40'0 0.0
2018-Feb-15 07:53N 28°33' W 094°40'0 0.0
2018-Feb-15 07:30N 28°33' W 094°40'0 0.0
2018-Feb-15 03:30N 28°33' W 094°41'0 0.0
2018-Feb-15 02:45N 28°33' W 094°41'0 0.0
2018-Feb-15 02:26N 28°33' W 094°41'0 0.0
2018-Feb-15 02:00N 28°33' W 094°41'0 0.0
2018-Feb-15 01:31N 28°33' W 094°41'0 0.0
2018-Feb-15 00:59N 28°33' W 094°41'0 0.0
2018-Feb-15 00:30N 28°33' W 094°41'0 0.0
2018-Feb-14 23:30N 28°33' W 094°41'1 0.1
2018-Feb-14 16:14N 28°33' W 094°40'2 4.7
2018-Feb-14 15:54N 28°34' W 094°38'3 5.1
2018-Feb-14 15:23N 28°35' W 094°36'2 6.1
2018-Feb-14 15:00N 28°36' W 094°33'  
Track history (hours):
 
Tides and Currents Weather Stations Pressure Air Temp Water Temp Dewpoint Dewpoint Depression Visibility Wind Speed Wind Dir Waves Ship Positions

Troviken

Last reported at 2018-Feb-21 23:00 UTC. Time now 2018-Feb-21 23:26 UTC.
Position N 29°59' W 093°52'.

Length 250 m; draft 11.3 m.

Type: Tanker. MMSI: 311066200.

Date/timePositionNaut miles runAvg speedWind from/ knotsBaromVisibWave heightAir tempDewpointWater temp
2018-Feb-21 23:00N 29°59' W 093°52'3 5.2
2018-Feb-21 22:30N 29°56' W 093°52'2 3.8
2018-Feb-21 22:00N 29°55' W 093°53'3 6.8
2018-Feb-21 21:30N 29°52' W 093°56'2 4.2
2018-Feb-21 21:00N 29°50' W 093°57'3 6.7
2018-Feb-21 20:30N 29°47' W 093°57'3 6.3
2018-Feb-21 20:00N 29°45' W 093°54'4 7.9
2018-Feb-21 19:30N 29°42' W 093°51'5 9.8
2018-Feb-21 19:00N 29°38' W 093°49'510.1
2018-Feb-21 18:30N 29°34' W 093°46'510.3
2018-Feb-21 18:00N 29°30' W 093°41'510.5
2018-Feb-21 17:30N 29°25' W 093°40'2 3.1
2018-Feb-21 16:52N 29°23' W 093°40'2 4.3
2018-Feb-21 16:30N 29°21' W 093°40'610.7
2018-Feb-21 15:59N 29°16' W 093°41'1 0.0
2018-Feb-20 05:14N 29°15' W 093°42'0 0.0
2018-Feb-19 16:41N 29°15' W 093°42'0 0.0
2018-Feb-19 16:29N 29°15' W 093°42'0 0.0
2018-Feb-19 15:56N 29°15' W 093°42'0 0.0
2018-Feb-19 15:29N 29°15' W 093°42'0 0.0
2018-Feb-19 14:53N 29°15' W 093°42'0 0.0
2018-Feb-19 12:50N 29°15' W 093°42'0 0.0
2018-Feb-19 12:26N 29°15' W 093°42'0 0.0
2018-Feb-19 11:59N 29°15' W 093°42'0 0.0
2018-Feb-19 11:23N 29°15' W 093°42'0 0.0
2018-Feb-19 10:59N 29°15' W 093°42'0 0.0
2018-Feb-19 10:14N 29°15' W 093°42'0 0.0
2018-Feb-19 09:44N 29°15' W 093°42'0 0.0
2018-Feb-19 09:20N 29°15' W 093°42'0 0.0
2018-Feb-19 08:56N 29°15' W 093°42'0 0.0
2018-Feb-19 08:23N 29°15' W 093°42'0 0.0
2018-Feb-19 07:53N 29°15' W 093°42'0 0.0
2018-Feb-19 07:20N 29°15' W 093°42'0 0.0
2018-Feb-19 06:50N 29°15' W 093°42'0 0.0
2018-Feb-19 05:50N 29°15' W 093°42'0 0.0
2018-Feb-19 04:11N 29°15' W 093°42'0 0.0
2018-Feb-19 03:08N 29°15' W 093°42'0 0.0
2018-Feb-19 02:59N 29°15' W 093°42'0 0.0
2018-Feb-19 02:26N 29°15' W 093°42'0 0.0
2018-Feb-18 23:50N 29°15' W 093°42'0 0.0
2018-Feb-18 23:29N 29°15' W 093°42'0 0.0
2018-Feb-18 10:41N 29°15' W 093°42'0 0.0
2018-Feb-18 10:29N 29°15' W 093°42'0 0.0
2018-Feb-18 09:59N 29°15' W 093°42'0 0.0
2018-Feb-18 09:26N 29°15' W 093°42'0 0.0
2018-Feb-18 08:59N 29°15' W 093°42'0 0.0
2018-Feb-18 08:23N 29°15' W 093°42'0 0.0
2018-Feb-18 07:59N 29°15' W 093°42'0 0.0
2018-Feb-18 05:14N 29°15' W 093°42'0 0.1
2018-Feb-18 04:47N 29°15' W 093°42'0 0.0
2018-Feb-18 04:29N 29°15' W 093°42'0 0.0
2018-Feb-18 03:38N 29°15' W 093°42'0 0.0
2018-Feb-18 03:29N 29°15' W 093°42'0 0.0
2018-Feb-16 03:59N 29°15' W 093°42'0 0.0
2018-Feb-16 02:35N 29°15' W 093°42'0 0.0
2018-Feb-15 19:01N 29°15' W 093°42'0 3.2
2018-Feb-15 18:54N 29°15' W 093°42'7 7.1
2018-Feb-15 17:56N 29°08' W 093°41'510.3
2018-Feb-15 17:29N 29°04' W 093°42'23 9.4
2018-Feb-15 15:00N 28°45' W 093°59'10 9.9
2018-Feb-15 14:00N 28°41' W 094°09'610.0
2018-Feb-15 13:22N 28°38' W 094°15'6 9.9
2018-Feb-15 12:45N 28°37' W 094°22'3 9.9
2018-Feb-15 12:25N 28°36' W 094°26'410.1
2018-Feb-15 12:00N 28°35' W 094°30'510.1
2018-Feb-15 11:31N 28°34' W 094°36'4 7.7
2018-Feb-15 10:58N 28°32' W 094°40'0 0.7
2018-Feb-15 10:25N 28°31' W 094°40'1 0.8
2018-Feb-15 08:50N 28°33' W 094°40'0 0.0
2018-Feb-15 08:27N 28°33' W 094°40'0 0.0
2018-Feb-15 07:53N 28°33' W 094°40'0 0.0
2018-Feb-15 07:30N 28°33' W 094°40'0 0.0
2018-Feb-15 03:30N 28°33' W 094°41'0 0.0
2018-Feb-15 02:45N 28°33' W 094°41'0 0.0
2018-Feb-15 02:26N 28°33' W 094°41'0 0.0
2018-Feb-15 02:00N 28°33' W 094°41'0 0.0
2018-Feb-15 01:31N 28°33' W 094°41'0 0.0
2018-Feb-15 00:59N 28°33' W 094°41'0 0.0
2018-Feb-15 00:30N 28°33' W 094°41'0 0.0
2018-Feb-14 23:30N 28°33' W 094°41'1 0.1
2018-Feb-14 16:14N 28°33' W 094°40'2 4.7
2018-Feb-14 15:54N 28°34' W 094°38'3 5.1
2018-Feb-14 15:23N 28°35' W 094°36'2 6.1
2018-Feb-14 15:00N 28°36' W 094°33'  

Dump ship's entire track history